sensor_id;sensor_type;location;lat;lon;timestamp;temperature;humidity
22112;DHT22;11222;50.872;4.312;2024-01-27T00:01:32;4.70;99.90
22112;DHT22;11222;50.872;4.312;2024-01-27T00:03:57;4.70;99.90
22112;DHT22;11222;50.872;4.312;2024-01-27T00:06:23;4.70;99.90
22112;DHT22;11222;50.872;4.312;2024-01-27T00:08:49;4.80;99.90
22112;DHT22;11222;50.872;4.312;2024-01-27T00:11:14;4.90;99.90
22112;DHT22;11222;50.872;4.312;2024-01-27T00:13:40;5.00;99.90
22112;DHT22;11222;50.872;4.312;2024-01-27T00:16:06;5.00;99.90
22112;DHT22;11222;50.872;4.312;2024-01-27T00:18:31;5.00;99.90
22112;DHT22;11222;50.872;4.312;2024-01-27T00:20:57;4.80;99.90
22112;DHT22;11222;50.872;4.312;2024-01-27T00:23:28;4.70;99.90
22112;DHT22;11222;50.872;4.312;2024-01-27T00:25:54;4.70;99.90
22112;DHT22;11222;50.872;4.312;2024-01-27T00:28:19;4.70;99.90
22112;DHT22;11222;50.872;4.312;2024-01-27T00:30:45;4.70;99.90
22112;DHT22;11222;50.872;4.312;2024-01-27T00:33:10;4.80;99.90
22112;DHT22;11222;50.872;4.312;2024-01-27T00:35:36;4.80;99.90
22112;DHT22;11222;50.872;4.312;2024-01-27T00:38:01;4.80;99.90
22112;DHT22;11222;50.872;4.312;2024-01-27T00:40:27;4.80;99.90
22112;DHT22;11222;50.872;4.312;2024-01-27T00:42:53;4.70;99.90
22112;DHT22;11222;50.872;4.312;2024-01-27T00:45:19;4.60;99.90
22112;DHT22;11222;50.872;4.312;2024-01-27T00:47:45;4.60;99.90
22112;DHT22;11222;50.872;4.312;2024-01-27T00:50:11;4.60;99.90
22112;DHT22;11222;50.872;4.312;2024-01-27T00:52:36;4.60;99.90
22112;DHT22;11222;50.872;4.312;2024-01-27T00:55:02;4.60;99.90
22112;DHT22;11222;50.872;4.312;2024-01-27T00:57:28;4.60;99.90
22112;DHT22;11222;50.872;4.312;2024-01-27T00:59:54;4.50;99.90
22112;DHT22;11222;50.872;4.312;2024-01-27T01:02:19;4.40;99.90
22112;DHT22;11222;50.872;4.312;2024-01-27T01:04:45;4.40;99.90
22112;DHT22;11222;50.872;4.312;2024-01-27T01:07:10;4.40;99.90
22112;DHT22;11222;50.872;4.312;2024-01-27T01:09:36;4.30;99.90
22112;DHT22;11222;50.872;4.312;2024-01-27T01:12:01;4.30;99.90
22112;DHT22;11222;50.872;4.312;2024-01-27T01:14:27;4.30;99.90
22112;DHT22;11222;50.872;4.312;2024-01-27T01:16:53;4.40;99.90
22112;DHT22;11222;50.872;4.312;2024-01-27T01:19:18;4.40;99.90
22112;DHT22;11222;50.872;4.312;2024-01-27T01:21:44;4.40;99.90
22112;DHT22;11222;50.872;4.312;2024-01-27T01:24:10;4.50;99.90
22112;DHT22;11222;50.872;4.312;2024-01-27T01:26:35;4.50;99.90
22112;DHT22;11222;50.872;4.312;2024-01-27T01:29:01;4.40;99.90
22112;DHT22;11222;50.872;4.312;2024-01-27T01:31:26;4.30;99.90
22112;DHT22;11222;50.872;4.312;2024-01-27T01:33:52;4.30;99.90
22112;DHT22;11222;50.872;4.312;2024-01-27T01:36:18;4.30;99.90
22112;DHT22;11222;50.872;4.312;2024-01-27T01:38:43;4.30;99.90
22112;DHT22;11222;50.872;4.312;2024-01-27T01:41:09;4.30;99.90
22112;DHT22;11222;50.872;4.312;2024-01-27T01:43:34;4.30;99.90
22112;DHT22;11222;50.872;4.312;2024-01-27T01:46:00;4.20;99.90
22112;DHT22;11222;50.872;4.312;2024-01-27T01:48:26;4.20;99.90
22112;DHT22;11222;50.872;4.312;2024-01-27T01:50:51;4.20;99.90
22112;DHT22;11222;50.872;4.312;2024-01-27T01:53:17;4.20;99.90
22112;DHT22;11222;50.872;4.312;2024-01-27T01:55:43;4.30;99.90
22112;DHT22;11222;50.872;4.312;2024-01-27T01:58:09;4.30;99.90
22112;DHT22;11222;50.872;4.312;2024-01-27T02:00:34;4.20;99.90
22112;DHT22;11222;50.872;4.312;2024-01-27T02:03:00;4.20;99.90
22112;DHT22;11222;50.872;4.312;2024-01-27T02:05:25;4.20;99.90
22112;DHT22;11222;50.872;4.312;2024-01-27T02:07:51;4.20;99.90
22112;DHT22;11222;50.872;4.312;2024-01-27T02:10:17;4.20;99.90
22112;DHT22;11222;50.872;4.312;2024-01-27T02:12:45;4.20;99.90
22112;DHT22;11222;50.872;4.312;2024-01-27T02:15:11;4.20;99.90
22112;DHT22;11222;50.872;4.312;2024-01-27T02:17:38;4.20;99.90
22112;DHT22;11222;50.872;4.312;2024-01-27T02:20:04;4.20;99.90
22112;DHT22;11222;50.872;4.312;2024-01-27T02:22:31;4.30;99.90
22112;DHT22;11222;50.872;4.312;2024-01-27T02:24:56;4.40;99.90
22112;DHT22;11222;50.872;4.312;2024-01-27T02:27:22;4.40;99.90
22112;DHT22;11222;50.872;4.312;2024-01-27T02:29:47;4.40;99.90
22112;DHT22;11222;50.872;4.312;2024-01-27T02:32:13;4.50;99.90
22112;DHT22;11222;50.872;4.312;2024-01-27T02:34:38;4.50;99.90
22112;DHT22;11222;50.872;4.312;2024-01-27T02:37:04;4.50;99.90
22112;DHT22;11222;50.872;4.312;2024-01-27T02:39:30;4.40;99.90
22112;DHT22;11222;50.872;4.312;2024-01-27T02:41:56;4.40;99.90
22112;DHT22;11222;50.872;4.312;2024-01-27T02:44:21;4.30;99.90
22112;DHT22;11222;50.872;4.312;2024-01-27T02:46:47;4.20;99.90
22112;DHT22;11222;50.872;4.312;2024-01-27T02:49:12;4.20;99.90
22112;DHT22;11222;50.872;4.312;2024-01-27T02:51:38;4.10;99.90
22112;DHT22;11222;50.872;4.312;2024-01-27T02:54:03;4.10;99.90
22112;DHT22;11222;50.872;4.312;2024-01-27T02:56:29;4.00;99.90
22112;DHT22;11222;50.872;4.312;2024-01-27T02:58:54;4.00;99.90
22112;DHT22;11222;50.872;4.312;2024-01-27T03:01:20;4.00;99.90
22112;DHT22;11222;50.872;4.312;2024-01-27T03:03:46;4.00;99.90
22112;DHT22;11222;50.872;4.312;2024-01-27T03:06:11;4.00;99.90
22112;DHT22;11222;50.872;4.312;2024-01-27T03:08:37;4.00;99.90
22112;DHT22;11222;50.872;4.312;2024-01-27T03:11:02;3.90;99.90
22112;DHT22;11222;50.872;4.312;2024-01-27T03:13:28;3.90;99.90
22112;DHT22;11222;50.872;4.312;2024-01-27T03:15:54;3.80;99.90
22112;DHT22;11222;50.872;4.312;2024-01-27T03:18:19;3.70;99.90
22112;DHT22;11222;50.872;4.312;2024-01-27T03:20:45;3.70;99.90
22112;DHT22;11222;50.872;4.312;2024-01-27T03:23:10;3.70;99.90
22112;DHT22;11222;50.872;4.312;2024-01-27T03:25:36;3.70;99.90
22112;DHT22;11222;50.872;4.312;2024-01-27T03:28:01;3.70;99.90
22112;DHT22;11222;50.872;4.312;2024-01-27T03:30:27;3.70;99.90
22112;DHT22;11222;50.872;4.312;2024-01-27T03:32:53;3.70;99.90
22112;DHT22;11222;50.872;4.312;2024-01-27T03:35:18;3.70;99.90
22112;DHT22;11222;50.872;4.312;2024-01-27T03:37:44;3.70;99.90
22112;DHT22;11222;50.872;4.312;2024-01-27T03:40:10;3.60;99.90
22112;DHT22;11222;50.872;4.312;2024-01-27T03:42:36;3.60;99.90
22112;DHT22;11222;50.872;4.312;2024-01-27T03:45:02;3.60;99.90
22112;DHT22;11222;50.872;4.312;2024-01-27T03:47:27;3.60;99.90
22112;DHT22;11222;50.872;4.312;2024-01-27T03:49:53;3.60;99.90
22112;DHT22;11222;50.872;4.312;2024-01-27T03:52:18;3.60;99.90
22112;DHT22;11222;50.872;4.312;2024-01-27T03:54:44;3.60;99.90
22112;DHT22;11222;50.872;4.312;2024-01-27T03:57:09;3.60;99.90
22112;DHT22;11222;50.872;4.312;2024-01-27T03:59:35;3.60;99.90
22112;DHT22;11222;50.872;4.312;2024-01-27T04:02:00;3.60;99.90
22112;DHT22;11222;50.872;4.312;2024-01-27T04:04:26;3.60;99.90
22112;DHT22;11222;50.872;4.312;2024-01-27T04:06:51;3.70;99.90
22112;DHT22;11222;50.872;4.312;2024-01-27T04:09:17;3.70;99.90
22112;DHT22;11222;50.872;4.312;2024-01-27T04:11:43;3.80;99.90
22112;DHT22;11222;50.872;4.312;2024-01-27T04:14:09;3.80;99.90
22112;DHT22;11222;50.872;4.312;2024-01-27T04:16:34;3.80;99.90
22112;DHT22;11222;50.872;4.312;2024-01-27T04:19:00;3.70;99.90
22112;DHT22;11222;50.872;4.312;2024-01-27T04:21:25;3.80;99.90
22112;DHT22;11222;50.872;4.312;2024-01-27T04:23:51;3.70;99.90
22112;DHT22;11222;50.872;4.312;2024-01-27T04:26:16;3.70;99.90
22112;DHT22;11222;50.872;4.312;2024-01-27T04:28:42;3.60;99.90
22112;DHT22;11222;50.872;4.312;2024-01-27T04:31:07;3.60;99.90
22112;DHT22;11222;50.872;4.312;2024-01-27T04:33:33;3.50;99.90
22112;DHT22;11222;50.872;4.312;2024-01-27T04:35:58;3.40;99.90
22112;DHT22;11222;50.872;4.312;2024-01-27T04:38:24;3.40;99.90
22112;DHT22;11222;50.872;4.312;2024-01-27T04:40:50;3.40;99.90
22112;DHT22;11222;50.872;4.312;2024-01-27T04:43:16;3.40;99.90
22112;DHT22;11222;50.872;4.312;2024-01-27T04:45:42;3.50;99.90
22112;DHT22;11222;50.872;4.312;2024-01-27T04:48:08;3.50;99.90
22112;DHT22;11222;50.872;4.312;2024-01-27T04:50:34;3.50;99.90
22112;DHT22;11222;50.872;4.312;2024-01-27T04:52:59;3.50;99.90
22112;DHT22;11222;50.872;4.312;2024-01-27T04:55:25;3.50;99.90
22112;DHT22;11222;50.872;4.312;2024-01-27T04:57:50;3.50;99.90
22112;DHT22;11222;50.872;4.312;2024-01-27T05:00:16;3.60;99.90
22112;DHT22;11222;50.872;4.312;2024-01-27T05:02:41;3.60;99.90
22112;DHT22;11222;50.872;4.312;2024-01-27T05:05:07;3.60;99.90
22112;DHT22;11222;50.872;4.312;2024-01-27T05:07:33;3.70;99.90
22112;DHT22;11222;50.872;4.312;2024-01-27T05:09:58;3.70;99.90
22112;DHT22;11222;50.872;4.312;2024-01-27T05:12:24;3.70;99.90
22112;DHT22;11222;50.872;4.312;2024-01-27T05:14:50;3.70;99.90
22112;DHT22;11222;50.872;4.312;2024-01-27T05:17:15;3.80;99.90
22112;DHT22;11222;50.872;4.312;2024-01-27T05:19:41;3.80;99.90
22112;DHT22;11222;50.872;4.312;2024-01-27T05:22:06;3.80;99.90
22112;DHT22;11222;50.872;4.312;2024-01-27T05:24:32;3.70;99.90
22112;DHT22;11222;50.872;4.312;2024-01-27T05:26:58;3.70;99.90
22112;DHT22;11222;50.872;4.312;2024-01-27T05:29:25;3.60;99.90
22112;DHT22;11222;50.872;4.312;2024-01-27T05:31:51;3.60;99.90
22112;DHT22;11222;50.872;4.312;2024-01-27T05:34:16;3.70;99.90
22112;DHT22;11222;50.872;4.312;2024-01-27T05:36:42;3.70;99.90
22112;DHT22;11222;50.872;4.312;2024-01-27T05:39:07;3.70;99.90
22112;DHT22;11222;50.872;4.312;2024-01-27T05:41:33;3.70;99.90
22112;DHT22;11222;50.872;4.312;2024-01-27T05:43:59;3.70;99.90
22112;DHT22;11222;50.872;4.312;2024-01-27T05:46:24;3.80;99.90
22112;DHT22;11222;50.872;4.312;2024-01-27T05:48:50;3.80;99.90
22112;DHT22;11222;50.872;4.312;2024-01-27T05:51:28;3.70;99.90
22112;DHT22;11222;50.872;4.312;2024-01-27T05:53:53;3.60;99.90
22112;DHT22;11222;50.872;4.312;2024-01-27T05:56:19;3.60;99.90
22112;DHT22;11222;50.872;4.312;2024-01-27T05:58:47;3.50;99.90
22112;DHT22;11222;50.872;4.312;2024-01-27T06:01:13;3.50;99.90
22112;DHT22;11222;50.872;4.312;2024-01-27T06:03:41;3.40;99.90
22112;DHT22;11222;50.872;4.312;2024-01-27T06:06:06;3.30;99.90
22112;DHT22;11222;50.872;4.312;2024-01-27T06:08:32;3.30;99.90
22112;DHT22;11222;50.872;4.312;2024-01-27T06:10:58;3.30;99.90
22112;DHT22;11222;50.872;4.312;2024-01-27T06:13:23;3.30;99.90
22112;DHT22;11222;50.872;4.312;2024-01-27T06:15:49;3.30;99.90
22112;DHT22;11222;50.872;4.312;2024-01-27T06:18:16;3.30;99.90
22112;DHT22;11222;50.872;4.312;2024-01-27T06:20:41;3.20;99.90
22112;DHT22;11222;50.872;4.312;2024-01-27T06:23:07;3.20;99.90
22112;DHT22;11222;50.872;4.312;2024-01-27T06:25:33;3.20;99.90
22112;DHT22;11222;50.872;4.312;2024-01-27T06:27:59;3.20;99.90
22112;DHT22;11222;50.872;4.312;2024-01-27T06:30:25;3.30;99.90
22112;DHT22;11222;50.872;4.312;2024-01-27T06:32:50;3.30;99.90
22112;DHT22;11222;50.872;4.312;2024-01-27T06:35:16;3.30;99.90
22112;DHT22;11222;50.872;4.312;2024-01-27T06:37:41;3.30;99.90
22112;DHT22;11222;50.872;4.312;2024-01-27T06:40:07;3.20;99.90
22112;DHT22;11222;50.872;4.312;2024-01-27T06:42:34;3.20;99.90
22112;DHT22;11222;50.872;4.312;2024-01-27T06:44:59;3.20;99.90
22112;DHT22;11222;50.872;4.312;2024-01-27T06:47:25;3.30;99.90
22112;DHT22;11222;50.872;4.312;2024-01-27T06:49:50;3.30;99.90
22112;DHT22;11222;50.872;4.312;2024-01-27T06:52:16;3.40;99.90
22112;DHT22;11222;50.872;4.312;2024-01-27T06:54:42;3.40;99.90
22112;DHT22;11222;50.872;4.312;2024-01-27T06:57:19;3.40;99.90
22112;DHT22;11222;50.872;4.312;2024-01-27T06:59:46;3.40;99.90
22112;DHT22;11222;50.872;4.312;2024-01-27T07:02:11;3.40;99.90
22112;DHT22;11222;50.872;4.312;2024-01-27T07:04:39;3.30;99.90
22112;DHT22;11222;50.872;4.312;2024-01-27T07:07:04;3.30;99.90
22112;DHT22;11222;50.872;4.312;2024-01-27T07:09:30;3.40;99.90
22112;DHT22;11222;50.872;4.312;2024-01-27T07:11:56;3.40;99.90
22112;DHT22;11222;50.872;4.312;2024-01-27T07:14:21;3.40;99.90
22112;DHT22;11222;50.872;4.312;2024-01-27T07:16:47;3.40;99.90
22112;DHT22;11222;50.872;4.312;2024-01-27T07:19:12;3.40;99.90
22112;DHT22;11222;50.872;4.312;2024-01-27T07:21:39;3.40;99.90
22112;DHT22;11222;50.872;4.312;2024-01-27T07:24:04;3.40;99.90
22112;DHT22;11222;50.872;4.312;2024-01-27T07:26:30;3.40;99.90
22112;DHT22;11222;50.872;4.312;2024-01-27T07:28:57;3.50;99.90
22112;DHT22;11222;50.872;4.312;2024-01-27T07:31:23;3.40;99.90
22112;DHT22;11222;50.872;4.312;2024-01-27T07:33:49;3.40;99.90
22112;DHT22;11222;50.872;4.312;2024-01-27T07:36:15;3.40;99.90
22112;DHT22;11222;50.872;4.312;2024-01-27T07:38:41;3.50;99.90
22112;DHT22;11222;50.872;4.312;2024-01-27T07:41:06;3.50;99.90
22112;DHT22;11222;50.872;4.312;2024-01-27T07:43:32;3.50;99.90
22112;DHT22;11222;50.872;4.312;2024-01-27T07:45:57;3.50;99.90
22112;DHT22;11222;50.872;4.312;2024-01-27T07:48:23;3.50;99.90
22112;DHT22;11222;50.872;4.312;2024-01-27T07:50:50;3.50;99.90
22112;DHT22;11222;50.872;4.312;2024-01-27T07:53:16;3.50;99.90
22112;DHT22;11222;50.872;4.312;2024-01-27T07:55:42;3.50;99.90
22112;DHT22;11222;50.872;4.312;2024-01-27T07:58:07;3.50;99.90
22112;DHT22;11222;50.872;4.312;2024-01-27T08:00:33;3.50;99.90
22112;DHT22;11222;50.872;4.312;2024-01-27T08:02:59;3.50;99.90
22112;DHT22;11222;50.872;4.312;2024-01-27T08:05:24;3.50;99.90
22112;DHT22;11222;50.872;4.312;2024-01-27T08:07:50;3.60;99.90
22112;DHT22;11222;50.872;4.312;2024-01-27T08:10:15;3.70;99.90
22112;DHT22;11222;50.872;4.312;2024-01-27T08:12:41;3.70;99.90
22112;DHT22;11222;50.872;4.312;2024-01-27T08:15:06;3.80;99.90
22112;DHT22;11222;50.872;4.312;2024-01-27T08:17:32;3.90;99.90
22112;DHT22;11222;50.872;4.312;2024-01-27T08:19:58;3.90;99.90
22112;DHT22;11222;50.872;4.312;2024-01-27T08:22:24;4.00;99.90
22112;DHT22;11222;50.872;4.312;2024-01-27T08:24:50;4.00;99.90
22112;DHT22;11222;50.872;4.312;2024-01-27T08:27:15;4.00;99.90
22112;DHT22;11222;50.872;4.312;2024-01-27T08:29:41;4.10;99.90
22112;DHT22;11222;50.872;4.312;2024-01-27T08:32:06;4.10;99.90
22112;DHT22;11222;50.872;4.312;2024-01-27T08:34:32;4.10;99.90
22112;DHT22;11222;50.872;4.312;2024-01-27T08:36:59;4.10;99.90
22112;DHT22;11222;50.872;4.312;2024-01-27T08:39:25;4.20;99.90
22112;DHT22;11222;50.872;4.312;2024-01-27T08:41:51;4.30;99.90
22112;DHT22;11222;50.872;4.312;2024-01-27T08:44:16;4.30;99.90
22112;DHT22;11222;50.872;4.312;2024-01-27T08:46:42;4.40;99.90
22112;DHT22;11222;50.872;4.312;2024-01-27T08:49:07;4.40;99.90
22112;DHT22;11222;50.872;4.312;2024-01-27T08:51:33;4.50;99.90
22112;DHT22;11222;50.872;4.312;2024-01-27T08:53:58;4.60;99.90
22112;DHT22;11222;50.872;4.312;2024-01-27T08:56:24;4.60;99.90
22112;DHT22;11222;50.872;4.312;2024-01-27T08:58:49;4.60;99.90
22112;DHT22;11222;50.872;4.312;2024-01-27T09:01:16;4.70;99.90
22112;DHT22;11222;50.872;4.312;2024-01-27T09:03:42;4.80;99.90
22112;DHT22;11222;50.872;4.312;2024-01-27T09:06:07;4.80;99.90
22112;DHT22;11222;50.872;4.312;2024-01-27T09:08:33;4.90;99.90
22112;DHT22;11222;50.872;4.312;2024-01-27T09:10:59;4.80;99.90
22112;DHT22;11222;50.872;4.312;2024-01-27T09:13:26;4.80;99.90
22112;DHT22;11222;50.872;4.312;2024-01-27T09:15:52;4.70;99.90
22112;DHT22;11222;50.872;4.312;2024-01-27T09:18:17;4.60;99.90
22112;DHT22;11222;50.872;4.312;2024-01-27T09:20:43;4.60;99.90
22112;DHT22;11222;50.872;4.312;2024-01-27T09:23:08;4.60;99.90
22112;DHT22;11222;50.872;4.312;2024-01-27T09:25:34;4.60;99.90
22112;DHT22;11222;50.872;4.312;2024-01-27T09:27:59;4.70;99.90
22112;DHT22;11222;50.872;4.312;2024-01-27T09:30:28;4.70;99.90
22112;DHT22;11222;50.872;4.312;2024-01-27T09:32:54;4.70;99.90
22112;DHT22;11222;50.872;4.312;2024-01-27T09:35:20;4.70;99.90
22112;DHT22;11222;50.872;4.312;2024-01-27T09:37:46;4.70;99.90
22112;DHT22;11222;50.872;4.312;2024-01-27T09:40:12;4.70;99.90
22112;DHT22;11222;50.872;4.312;2024-01-27T09:42:38;4.80;99.90
22112;DHT22;11222;50.872;4.312;2024-01-27T09:45:06;4.80;99.90
22112;DHT22;11222;50.872;4.312;2024-01-27T09:47:34;4.80;99.90
22112;DHT22;11222;50.872;4.312;2024-01-27T09:50:00;4.80;99.90
22112;DHT22;11222;50.872;4.312;2024-01-27T09:52:26;4.80;99.90
22112;DHT22;11222;50.872;4.312;2024-01-27T09:54:51;4.90;99.90
22112;DHT22;11222;50.872;4.312;2024-01-27T09:57:17;5.00;99.90
22112;DHT22;11222;50.872;4.312;2024-01-27T09:59:45;5.00;99.90
22112;DHT22;11222;50.872;4.312;2024-01-27T10:02:11;5.00;99.90
22112;DHT22;11222;50.872;4.312;2024-01-27T10:04:38;5.00;99.90
22112;DHT22;11222;50.872;4.312;2024-01-27T10:07:05;5.10;99.90
22112;DHT22;11222;50.872;4.312;2024-01-27T10:09:31;5.10;99.90
22112;DHT22;11222;50.872;4.312;2024-01-27T10:11:56;5.20;99.90
22112;DHT22;11222;50.872;4.312;2024-01-27T10:14:24;5.20;99.90
22112;DHT22;11222;50.872;4.312;2024-01-27T10:16:49;5.30;99.90
22112;DHT22;11222;50.872;4.312;2024-01-27T10:19:15;5.40;99.90
22112;DHT22;11222;50.872;4.312;2024-01-27T10:21:43;5.70;99.90
22112;DHT22;11222;50.872;4.312;2024-01-27T10:24:08;5.90;99.90
22112;DHT22;11222;50.872;4.312;2024-01-27T10:26:34;6.10;99.90
22112;DHT22;11222;50.872;4.312;2024-01-27T10:29:00;6.20;99.90
22112;DHT22;11222;50.872;4.312;2024-01-27T10:31:30;6.20;99.90
22112;DHT22;11222;50.872;4.312;2024-01-27T10:33:56;6.40;99.90
22112;DHT22;11222;50.872;4.312;2024-01-27T10:36:22;6.60;99.90
22112;DHT22;11222;50.872;4.312;2024-01-27T10:38:48;6.70;99.90
22112;DHT22;11222;50.872;4.312;2024-01-27T10:41:23;6.80;99.90
22112;DHT22;11222;50.872;4.312;2024-01-27T10:43:53;6.80;99.90
22112;DHT22;11222;50.872;4.312;2024-01-27T10:46:19;6.80;99.90
22112;DHT22;11222;50.872;4.312;2024-01-27T10:48:53;6.90;99.90
22112;DHT22;11222;50.872;4.312;2024-01-27T10:51:22;6.90;99.90
22112;DHT22;11222;50.872;4.312;2024-01-27T10:53:48;7.00;99.90
22112;DHT22;11222;50.872;4.312;2024-01-27T10:56:14;7.00;99.90
22112;DHT22;11222;50.872;4.312;2024-01-27T10:58:40;7.00;99.90
22112;DHT22;11222;50.872;4.312;2024-01-27T11:01:12;7.10;99.90
22112;DHT22;11222;50.872;4.312;2024-01-27T11:03:39;7.10;99.90
22112;DHT22;11222;50.872;4.312;2024-01-27T11:06:07;7.00;99.90
22112;DHT22;11222;50.872;4.312;2024-01-27T11:08:33;7.00;99.90
22112;DHT22;11222;50.872;4.312;2024-01-27T11:10:59;6.90;99.90
22112;DHT22;11222;50.872;4.312;2024-01-27T11:13:25;6.90;99.90
22112;DHT22;11222;50.872;4.312;2024-01-27T11:15:52;6.90;99.90
22112;DHT22;11222;50.872;4.312;2024-01-27T11:18:18;6.90;99.90
22112;DHT22;11222;50.872;4.312;2024-01-27T11:20:44;6.90;99.90
22112;DHT22;11222;50.872;4.312;2024-01-27T11:23:10;7.00;99.90
22112;DHT22;11222;50.872;4.312;2024-01-27T11:25:36;7.00;99.90
22112;DHT22;11222;50.872;4.312;2024-01-27T11:28:10;7.00;99.90
22112;DHT22;11222;50.872;4.312;2024-01-27T11:30:35;7.00;99.90
22112;DHT22;11222;50.872;4.312;2024-01-27T11:33:05;7.00;99.90
22112;DHT22;11222;50.872;4.312;2024-01-27T11:35:30;7.20;99.90
22112;DHT22;11222;50.872;4.312;2024-01-27T11:37:56;7.30;99.90
22112;DHT22;11222;50.872;4.312;2024-01-27T11:40:22;7.50;99.90
22112;DHT22;11222;50.872;4.312;2024-01-27T11:42:54;7.50;99.90
22112;DHT22;11222;50.872;4.312;2024-01-27T11:45:19;7.50;99.90
22112;DHT22;11222;50.872;4.312;2024-01-27T11:47:45;7.60;99.90
22112;DHT22;11222;50.872;4.312;2024-01-27T11:50:11;7.70;99.90
22112;DHT22;11222;50.872;4.312;2024-01-27T11:52:36;7.80;99.90
22112;DHT22;11222;50.872;4.312;2024-01-27T11:55:02;7.80;99.90
22112;DHT22;11222;50.872;4.312;2024-01-27T11:57:29;7.90;99.90
22112;DHT22;11222;50.872;4.312;2024-01-27T11:59:55;8.10;99.90
22112;DHT22;11222;50.872;4.312;2024-01-27T12:02:20;8.10;99.90
22112;DHT22;11222;50.872;4.312;2024-01-27T12:04:49;8.10;99.90
22112;DHT22;11222;50.872;4.312;2024-01-27T12:07:15;8.10;99.90
22112;DHT22;11222;50.872;4.312;2024-01-27T12:09:40;8.20;99.90
22112;DHT22;11222;50.872;4.312;2024-01-27T12:12:06;8.20;99.90
22112;DHT22;11222;50.872;4.312;2024-01-27T12:14:40;8.20;99.90
22112;DHT22;11222;50.872;4.312;2024-01-27T12:17:09;8.30;99.90
22112;DHT22;11222;50.872;4.312;2024-01-27T12:19:35;8.50;99.90
22112;DHT22;11222;50.872;4.312;2024-01-27T12:22:01;8.50;99.90
22112;DHT22;11222;50.872;4.312;2024-01-27T12:24:27;8.50;99.90
22112;DHT22;11222;50.872;4.312;2024-01-27T12:26:52;8.50;99.90
22112;DHT22;11222;50.872;4.312;2024-01-27T12:29:21;8.60;99.90
22112;DHT22;11222;50.872;4.312;2024-01-27T12:31:46;8.70;99.90
22112;DHT22;11222;50.872;4.312;2024-01-27T12:34:12;8.80;99.90
22112;DHT22;11222;50.872;4.312;2024-01-27T12:36:41;8.90;99.90
22112;DHT22;11222;50.872;4.312;2024-01-27T12:39:07;9.10;99.90
22112;DHT22;11222;50.872;4.312;2024-01-27T12:41:34;9.20;99.90
22112;DHT22;11222;50.872;4.312;2024-01-27T12:43:59;9.20;99.90
22112;DHT22;11222;50.872;4.312;2024-01-27T12:46:25;9.50;99.90
22112;DHT22;11222;50.872;4.312;2024-01-27T12:48:51;9.60;99.90
22112;DHT22;11222;50.872;4.312;2024-01-27T12:51:16;9.60;99.90
22112;DHT22;11222;50.872;4.312;2024-01-27T12:53:42;9.60;99.90
22112;DHT22;11222;50.872;4.312;2024-01-27T12:56:11;9.50;99.90
22112;DHT22;11222;50.872;4.312;2024-01-27T12:58:37;9.40;99.90
22112;DHT22;11222;50.872;4.312;2024-01-27T13:01:03;9.40;99.90
22112;DHT22;11222;50.872;4.312;2024-01-27T13:03:29;9.40;99.90
22112;DHT22;11222;50.872;4.312;2024-01-27T13:05:55;9.30;99.90
22112;DHT22;11222;50.872;4.312;2024-01-27T13:08:21;9.10;99.90
22112;DHT22;11222;50.872;4.312;2024-01-27T13:10:47;8.90;99.90
22112;DHT22;11222;50.872;4.312;2024-01-27T13:13:12;8.90;99.90
22112;DHT22;11222;50.872;4.312;2024-01-27T13:15:38;9.00;99.90
22112;DHT22;11222;50.872;4.312;2024-01-27T13:18:04;9.10;99.90
22112;DHT22;11222;50.872;4.312;2024-01-27T13:20:29;9.20;99.90
22112;DHT22;11222;50.872;4.312;2024-01-27T13:22:55;9.30;99.90
22112;DHT22;11222;50.872;4.312;2024-01-27T13:25:20;9.30;99.90
22112;DHT22;11222;50.872;4.312;2024-01-27T13:27:46;9.20;99.90
22112;DHT22;11222;50.872;4.312;2024-01-27T13:30:12;9.10;99.90
22112;DHT22;11222;50.872;4.312;2024-01-27T13:32:38;9.10;99.90
22112;DHT22;11222;50.872;4.312;2024-01-27T13:35:03;9.00;99.90
22112;DHT22;11222;50.872;4.312;2024-01-27T13:37:29;9.00;99.90
22112;DHT22;11222;50.872;4.312;2024-01-27T13:40:02;9.00;99.90
22112;DHT22;11222;50.872;4.312;2024-01-27T13:42:29;9.00;99.90
22112;DHT22;11222;50.872;4.312;2024-01-27T13:45:03;9.00;99.90
22112;DHT22;11222;50.872;4.312;2024-01-27T13:47:30;9.00;99.90
22112;DHT22;11222;50.872;4.312;2024-01-27T13:49:55;8.90;99.90
22112;DHT22;11222;50.872;4.312;2024-01-27T13:52:21;8.90;99.90
22112;DHT22;11222;50.872;4.312;2024-01-27T13:54:47;9.00;99.90
22112;DHT22;11222;50.872;4.312;2024-01-27T13:57:14;9.00;99.90
22112;DHT22;11222;50.872;4.312;2024-01-27T13:59:39;9.10;99.90
22112;DHT22;11222;50.872;4.312;2024-01-27T14:02:05;8.90;99.90
22112;DHT22;11222;50.872;4.312;2024-01-27T14:04:31;8.80;99.90
22112;DHT22;11222;50.872;4.312;2024-01-27T14:06:56;8.90;99.90
22112;DHT22;11222;50.872;4.312;2024-01-27T14:09:22;8.90;99.90
22112;DHT22;11222;50.872;4.312;2024-01-27T14:11:48;8.90;99.90
22112;DHT22;11222;50.872;4.312;2024-01-27T14:14:13;8.80;99.90
22112;DHT22;11222;50.872;4.312;2024-01-27T14:16:39;8.90;99.90
22112;DHT22;11222;50.872;4.312;2024-01-27T14:19:05;8.80;99.90
22112;DHT22;11222;50.872;4.312;2024-01-27T14:21:31;8.90;99.90
22112;DHT22;11222;50.872;4.312;2024-01-27T14:23:56;8.90;99.90
22112;DHT22;11222;50.872;4.312;2024-01-27T14:26:27;8.90;99.90
22112;DHT22;11222;50.872;4.312;2024-01-27T14:28:53;8.80;99.90
22112;DHT22;11222;50.872;4.312;2024-01-27T14:31:19;8.80;99.90
22112;DHT22;11222;50.872;4.312;2024-01-27T14:33:44;8.70;99.90
22112;DHT22;11222;50.872;4.312;2024-01-27T14:36:10;8.60;99.90
22112;DHT22;11222;50.872;4.312;2024-01-27T14:38:36;8.50;99.90
22112;DHT22;11222;50.872;4.312;2024-01-27T14:41:02;8.50;99.90
22112;DHT22;11222;50.872;4.312;2024-01-27T14:43:28;8.50;99.90
22112;DHT22;11222;50.872;4.312;2024-01-27T14:45:54;8.50;99.90
22112;DHT22;11222;50.872;4.312;2024-01-27T14:48:21;8.40;99.90
22112;DHT22;11222;50.872;4.312;2024-01-27T14:50:47;8.50;99.90
22112;DHT22;11222;50.872;4.312;2024-01-27T14:53:20;8.60;99.90
22112;DHT22;11222;50.872;4.312;2024-01-27T14:55:45;8.60;99.90
22112;DHT22;11222;50.872;4.312;2024-01-27T14:58:11;8.50;99.90
22112;DHT22;11222;50.872;4.312;2024-01-27T15:00:37;8.50;99.90
22112;DHT22;11222;50.872;4.312;2024-01-27T15:03:05;8.50;99.90
22112;DHT22;11222;50.872;4.312;2024-01-27T15:05:31;8.60;99.90
22112;DHT22;11222;50.872;4.312;2024-01-27T15:08:01;8.60;99.90
22112;DHT22;11222;50.872;4.312;2024-01-27T15:10:27;8.60;99.90
22112;DHT22;11222;50.872;4.312;2024-01-27T15:12:52;8.60;99.90
22112;DHT22;11222;50.872;4.312;2024-01-27T15:15:18;8.60;99.90
22112;DHT22;11222;50.872;4.312;2024-01-27T15:17:43;8.50;99.90
22112;DHT22;11222;50.872;4.312;2024-01-27T15:20:09;8.40;99.90
22112;DHT22;11222;50.872;4.312;2024-01-27T15:22:34;8.40;99.90
22112;DHT22;11222;50.872;4.312;2024-01-27T15:25:00;8.30;99.90
22112;DHT22;11222;50.872;4.312;2024-01-27T15:27:26;8.40;99.90
22112;DHT22;11222;50.872;4.312;2024-01-27T15:29:51;8.40;99.90
22112;DHT22;11222;50.872;4.312;2024-01-27T15:32:17;8.40;99.90
22112;DHT22;11222;50.872;4.312;2024-01-27T15:34:46;8.40;99.90
22112;DHT22;11222;50.872;4.312;2024-01-27T15:37:12;8.40;99.90